createdAt,value
2018-07-09T00:03:42.568Z,2.70
2018-07-09T00:08:37.166Z,2.40
2018-07-09T00:13:32.735Z,2.70
2018-07-09T00:18:27.503Z,2.47
2018-07-09T00:23:22.112Z,2.67
2018-07-09T00:28:17.701Z,2.60
2018-07-09T00:33:12.864Z,2.83
2018-07-09T00:38:07.416Z,2.50
2018-07-09T00:43:02.012Z,2.50
2018-07-09T00:47:57.043Z,3.07
2018-07-09T00:52:51.861Z,3.20
2018-07-09T00:57:46.494Z,2.93
2018-07-09T01:02:43.788Z,3.03
2018-07-09T01:07:40.039Z,3.03
2018-07-09T01:12:34.768Z,2.77
2018-07-09T01:17:29.279Z,2.87
2018-07-09T01:22:23.805Z,2.77
2018-07-09T01:27:18.375Z,3.23
2018-07-09T01:32:12.899Z,3.07
2018-07-09T01:37:07.469Z,3.10
2018-07-09T01:42:02.046Z,3.30
2018-07-09T01:46:56.942Z,3.07
2018-07-09T01:51:52.163Z,3.13
2018-07-09T01:56:46.880Z,3.20
2018-07-09T02:01:41.798Z,3.40
2018-07-09T02:06:36.328Z,3.00
2018-07-09T02:11:30.769Z,2.87
2018-07-09T02:16:25.214Z,3.20
2018-07-09T02:21:19.822Z,2.87
2018-07-09T02:26:14.493Z,3.37
2018-07-09T02:31:08.774Z,3.27
2018-07-09T02:36:03.950Z,3.60
2018-07-09T02:40:58.560Z,3.23
2018-07-09T02:45:53.116Z,3.13
2018-07-09T02:50:47.386Z,3.63
2018-07-09T02:55:42.427Z,2.90
2018-07-09T03:00:37.138Z,3.47
2018-07-09T03:05:31.660Z,3.20
2018-07-09T03:10:26.481Z,3.80
2018-07-09T03:15:20.991Z,3.40
2018-07-09T03:20:15.594Z,3.90
2018-07-09T03:25:10.340Z,3.60
2018-07-09T03:30:05.224Z,3.47
2018-07-09T03:34:59.765Z,3.43
2018-07-09T03:39:54.322Z,3.70
2018-07-09T03:44:48.837Z,3.73
2018-07-09T03:49:43.098Z,4.10
2018-07-09T03:54:37.590Z,4.10
2018-07-09T03:59:32.357Z,3.40
2018-07-09T04:04:27.142Z,3.67
2018-07-09T04:09:21.845Z,4.10
2018-07-09T04:14:16.317Z,4.10
2018-07-09T04:19:11.066Z,4.10
2018-07-09T04:24:05.578Z,4.90
2018-07-09T04:28:59.767Z,4.50
2018-07-09T04:33:54.375Z,5.10
2018-07-09T04:38:48.892Z,4.90
2018-07-09T04:43:43.353Z,5.20
2018-07-09T04:48:37.854Z,4.50
2018-07-09T04:53:32.978Z,5.33
2018-07-09T04:58:27.610Z,4.80
2018-07-09T05:03:22.108Z,4.70
2018-07-09T05:08:16.847Z,4.57
2018-07-09T05:13:11.386Z,4.83
2018-07-09T05:18:06.095Z,4.57
2018-07-09T05:23:00.581Z,4.07
2018-07-09T05:27:54.846Z,3.57
2018-07-09T05:32:49.330Z,3.20
2018-07-09T05:37:43.809Z,3.07
2018-07-09T05:42:40.704Z,2.87
2018-07-09T05:47:37.795Z,3.00
2018-07-09T05:52:32.988Z,2.60
2018-07-09T05:57:28.069Z,2.47
2018-07-09T06:02:22.979Z,2.63
2018-07-09T06:07:17.717Z,2.00
2018-07-09T06:12:12.604Z,2.13
2018-07-09T06:17:08.033Z,2.37
2018-07-09T06:22:02.992Z,2.20
2018-07-09T06:26:57.807Z,2.17
2018-07-09T06:31:52.397Z,1.83
2018-07-09T06:36:47.176Z,1.97
2018-07-09T06:41:42.043Z,1.60
2018-07-09T06:46:36.873Z,1.83
2018-07-09T06:51:31.579Z,1.73
2018-07-09T06:56:26.704Z,1.97
2018-07-09T07:01:21.627Z,2.40
2018-07-09T07:06:16.456Z,1.90
2018-07-09T07:11:11.473Z,2.10
2018-07-09T07:16:06.366Z,1.80
2018-07-09T07:21:01.103Z,2.60
2018-07-09T07:25:56.082Z,2.10
2018-07-09T07:30:50.924Z,2.00
2018-07-09T07:35:45.861Z,2.20
2018-07-09T07:40:40.922Z,1.77
2018-07-09T07:45:35.928Z,1.63
2018-07-09T07:50:30.933Z,1.90
2018-07-09T07:55:26.032Z,1.60
2018-07-09T08:00:21.202Z,1.67
2018-07-09T08:05:15.955Z,1.50
2018-07-09T08:10:10.866Z,1.63
2018-07-09T08:15:05.600Z,1.70
2018-07-09T08:20:00.550Z,1.80
2018-07-09T08:24:55.409Z,1.40
2018-07-09T08:29:50.346Z,1.80
2018-07-09T08:34:45.066Z,1.90
2018-07-09T08:39:39.798Z,1.90
2018-07-09T08:44:34.942Z,1.73
2018-07-09T08:49:29.955Z,1.60
2018-07-09T08:54:25.360Z,1.57
2018-07-09T08:59:20.392Z,1.60
2018-07-09T09:04:15.113Z,1.87
2018-07-09T09:09:10.470Z,2.37
2018-07-09T09:14:05.486Z,1.90
2018-07-09T09:19:00.742Z,1.60
2018-07-09T09:23:55.567Z,1.70
2018-07-09T09:28:50.342Z,1.80
2018-07-09T09:33:45.128Z,1.60
2018-07-09T09:38:39.840Z,1.87
2018-07-09T09:43:34.713Z,1.83
2018-07-09T09:48:29.725Z,1.87
2018-07-09T09:53:24.786Z,1.90
2018-07-09T09:58:19.660Z,1.90
2018-07-09T10:03:14.759Z,1.93
2018-07-09T10:08:09.515Z,2.40
2018-07-09T10:13:04.317Z,2.00
2018-07-09T10:17:58.928Z,1.93
2018-07-09T10:22:53.933Z,2.10
2018-07-09T10:27:48.913Z,1.93
2018-07-09T10:32:43.672Z,2.40
2018-07-09T10:37:38.332Z,2.30
2018-07-09T10:42:33.344Z,2.40
2018-07-09T10:47:28.282Z,2.00
2018-07-09T10:52:23.526Z,2.40
2018-07-09T10:57:18.250Z,2.40
2018-07-09T11:02:12.995Z,2.50
2018-07-09T11:07:08.047Z,3.10
2018-07-09T11:12:03.042Z,2.80
2018-07-09T11:16:57.885Z,2.60
2018-07-09T11:21:52.656Z,2.37
2018-07-09T11:26:47.392Z,1.97
2018-07-09T11:31:42.778Z,1.63
2018-07-09T11:36:37.651Z,2.10
2018-07-09T11:41:32.371Z,2.30
2018-07-09T11:46:27.435Z,2.20
2018-07-09T11:51:22.337Z,1.87
2018-07-09T11:56:17.078Z,2.50
2018-07-09T12:01:12.096Z,2.30
2018-07-09T12:06:07.173Z,2.50
2018-07-09T12:11:01.944Z,2.00
2018-07-09T12:15:56.692Z,2.30
2018-07-09T12:20:51.196Z,2.10
2018-07-09T12:25:45.805Z,2.10
2018-07-09T12:30:40.282Z,2.00
2018-07-09T12:35:35.033Z,2.17
2018-07-09T12:40:30.034Z,1.97
2018-07-09T12:45:24.540Z,2.50
2018-07-09T12:50:19.076Z,2.23
2018-07-09T12:55:13.872Z,2.40
2018-07-09T13:00:08.794Z,2.93
2018-07-09T13:05:03.599Z,2.77
2018-07-09T13:09:58.414Z,2.53
2018-07-09T13:14:53.500Z,3.13
2018-07-09T13:19:48.402Z,2.73
2018-07-09T13:24:43.356Z,3.00
2018-07-09T13:29:37.943Z,3.57
2018-07-09T13:34:32.743Z,3.10
2018-07-09T13:39:27.773Z,2.90
2018-07-09T13:44:22.510Z,3.00
2018-07-09T13:49:17.633Z,3.00
2018-07-09T13:54:12.637Z,2.97
2018-07-09T13:59:07.176Z,2.53
2018-07-09T14:04:02.309Z,2.00
2018-07-09T14:08:57.238Z,2.23
2018-07-09T14:13:52.056Z,2.47
2018-07-09T14:18:47.254Z,2.20
2018-07-09T14:23:41.892Z,2.20
2018-07-09T14:28:36.736Z,2.00
2018-07-09T14:33:31.798Z,1.90
2018-07-09T14:38:26.718Z,2.07
2018-07-09T14:43:21.662Z,2.13
2018-07-09T14:48:16.999Z,2.17
2018-07-09T14:53:11.766Z,2.50
2018-07-09T14:58:06.708Z,2.50
2018-07-09T15:03:01.705Z,2.30
2018-07-09T15:07:56.578Z,2.60
2018-07-09T15:12:51.832Z,2.37
2018-07-09T15:17:46.739Z,3.03
2018-07-09T15:22:41.450Z,3.27
2018-07-09T15:27:36.547Z,2.80
2018-07-09T15:32:32.305Z,3.00
2018-07-09T15:37:27.340Z,2.80
2018-07-09T15:42:21.824Z,3.17
2018-07-09T15:47:16.589Z,2.63
2018-07-09T15:52:11.220Z,3.30
2018-07-09T15:57:05.885Z,2.90
2018-07-09T16:02:00.166Z,3.00
2018-07-09T16:06:54.782Z,3.07
2018-07-09T16:11:49.557Z,3.07
2018-07-09T16:16:44.090Z,2.13
2018-07-09T16:21:39.054Z,2.20
2018-07-09T16:26:33.938Z,1.90
2018-07-09T16:31:29.428Z,1.90
2018-07-09T16:36:24.375Z,1.67
2018-07-09T16:41:18.912Z,1.30
2018-07-09T16:46:13.485Z,1.50
2018-07-09T16:51:08.026Z,1.80
2018-07-09T16:56:02.617Z,2.03
2018-07-09T17:00:57.109Z,1.77
2018-07-09T17:05:51.724Z,1.83
2018-07-09T17:10:46.534Z,1.70
2018-07-09T17:15:41.007Z,1.87
2018-07-09T17:20:35.777Z,2.03
2018-07-09T17:25:30.267Z,2.20
2018-07-09T17:30:24.719Z,2.20
2018-07-09T17:35:19.638Z,2.17
2018-07-09T17:40:14.265Z,2.00
2018-07-09T17:45:09.362Z,2.07
2018-07-09T17:50:04.087Z,1.90
2018-07-09T17:54:58.452Z,2.00
2018-07-09T17:59:53.205Z,1.93
2018-07-09T18:04:47.774Z,1.93
2018-07-09T18:09:42.397Z,1.83
2018-07-09T18:14:36.930Z,1.70
2018-07-09T18:19:31.480Z,2.07
2018-07-09T18:24:26.330Z,1.60
2018-07-09T18:29:20.834Z,1.60
2018-07-09T18:34:15.343Z,2.10
2018-07-09T18:39:09.886Z,1.60
2018-07-09T18:44:04.346Z,1.80
2018-07-09T18:48:59.134Z,2.00
2018-07-09T18:53:53.831Z,1.60
2018-07-09T18:58:48.345Z,1.60
2018-07-09T19:03:44.492Z,1.40
2018-07-09T19:08:39.626Z,1.90
2018-07-09T19:13:34.124Z,1.73
2018-07-09T19:19:44.389Z,2.00
2018-07-09T19:24:37.518Z,2.20
2018-07-09T19:29:30.408Z,2.10
2018-07-09T19:34:23.471Z,2.23
2018-07-09T19:39:16.362Z,2.33
2018-07-09T19:44:09.297Z,2.10
2018-07-09T19:49:02.149Z,2.40
2018-07-09T19:53:55.090Z,2.30
2018-07-09T19:58:47.961Z,2.73
2018-07-09T20:03:40.838Z,2.40
2018-07-09T20:08:38.884Z,2.33
2018-07-09T20:14:12.219Z,2.20
2018-07-09T20:19:05.333Z,2.60
2018-07-09T20:23:58.600Z,2.50
2018-07-09T20:28:51.594Z,2.40
2018-07-09T20:33:44.488Z,2.60
2018-07-09T20:38:37.413Z,2.80
2018-07-09T20:43:30.283Z,3.57
2018-07-09T20:48:23.189Z,3.77
2018-07-09T20:53:16.101Z,3.60
2018-07-09T20:58:08.970Z,3.63
2018-07-09T21:03:01.819Z,3.83
2018-07-09T21:07:54.743Z,3.70
2018-07-09T21:12:52.874Z,4.07
2018-07-09T21:17:45.894Z,3.40
2018-07-09T21:22:38.768Z,3.50
2018-07-09T21:27:31.621Z,3.70
2018-07-09T21:32:24.510Z,4.23
2018-07-09T21:37:17.372Z,4.37
2018-07-09T21:42:10.477Z,3.90
2018-07-09T21:47:03.617Z,3.93
2018-07-09T21:51:56.777Z,3.70
2018-07-09T21:56:49.746Z,3.53
2018-07-09T22:01:42.658Z,3.53
2018-07-09T22:06:35.682Z,3.00
2018-07-09T22:11:29.267Z,3.20
2018-07-09T22:16:22.429Z,3.00
2018-07-09T22:21:15.445Z,2.70
2018-07-09T22:26:08.479Z,3.20
2018-07-09T22:31:03.400Z,2.47
2018-07-09T22:35:57.780Z,2.30
2018-07-09T22:40:52.383Z,2.60
2018-07-09T22:45:47.266Z,2.43
2018-07-09T22:50:41.915Z,2.40
2018-07-09T22:55:53.708Z,2.20
2018-07-09T23:00:48.833Z,1.70
2018-07-09T23:05:43.381Z,1.83
2018-07-09T23:13:23.553Z,1.53
2018-07-09T23:18:39.806Z,1.53
2018-07-09T23:23:32.657Z,1.60
2018-07-09T23:28:25.540Z,1.60
2018-07-09T23:33:18.568Z,1.73
2018-07-09T23:38:11.597Z,1.60
2018-07-09T23:43:05.606Z,1.80
2018-07-09T23:47:58.466Z,1.80
2018-07-09T23:52:51.346Z,1.60
